createdAt,value
2018-01-06T00:00:44.845Z,15.23
2018-01-06T00:03:12.466Z,7.97
2018-01-06T00:05:40.010Z,15.55
2018-01-06T00:08:07.545Z,10.55
2018-01-06T00:10:35.866Z,13.32
2018-01-06T00:13:03.562Z,12.10
2018-01-06T00:15:31.117Z,6.03
2018-01-06T00:17:58.787Z,10.73
2018-01-06T00:20:26.489Z,6.97
2018-01-06T00:22:54.034Z,7.90
2018-01-06T00:25:22.392Z,6.20
2018-01-06T00:27:49.958Z,6.70
2018-01-06T00:30:18.293Z,10.30
2018-01-06T00:32:45.851Z,6.80
2018-01-06T00:35:13.411Z,10.43
2018-01-06T00:37:41.183Z,7.55
2018-01-06T00:40:08.799Z,5.12
2018-01-06T00:42:37.165Z,5.32
2018-01-06T00:45:04.790Z,6.28
2018-01-06T00:47:32.381Z,6.95
2018-01-06T00:49:59.995Z,5.12
2018-01-06T00:52:28.321Z,4.93
2018-01-06T00:54:55.893Z,4.10
2018-01-06T00:57:23.440Z,8.15
2018-01-06T00:59:51.067Z,11.23
2018-01-06T01:02:18.644Z,4.45
2018-01-06T01:04:46.249Z,5.95
2018-01-06T01:07:13.894Z,5.47
2018-01-06T01:09:41.528Z,6.82
2018-01-06T01:12:09.108Z,10.25
2018-01-06T01:14:36.659Z,8.27
2018-01-06T01:17:04.228Z,10.27
2018-01-06T01:19:31.798Z,8.07
2018-01-06T01:21:59.382Z,7.90
2018-01-06T01:24:26.929Z,6.90
2018-01-06T01:26:54.496Z,7.55
2018-01-06T01:29:22.086Z,6.35
2018-01-06T01:31:50.397Z,11.55
2018-01-06T01:34:18.062Z,6.95
2018-01-06T01:36:45.623Z,6.45
2018-01-06T01:39:13.227Z,8.98
2018-01-06T01:41:40.881Z,6.62
2018-01-06T01:44:08.501Z,10.07
2018-01-06T01:46:36.053Z,6.10
2018-01-06T01:49:03.649Z,9.85
2018-01-06T01:51:31.215Z,8.25
2018-01-06T01:53:58.757Z,5.18
2018-01-06T01:56:26.311Z,5.95
2018-01-06T01:58:53.880Z,6.82
2018-01-06T02:01:21.417Z,4.55
2018-01-06T02:03:49.894Z,10.40
2018-01-06T02:06:18.217Z,6.57
2018-01-06T02:08:45.764Z,9.70
2018-01-06T02:11:13.307Z,4.87
2018-01-06T02:13:41.636Z,4.32
2018-01-06T02:16:09.208Z,12.50
2018-01-06T02:18:36.771Z,8.70
2018-01-06T02:21:04.344Z,6.10
2018-01-06T02:23:31.874Z,8.93
2018-01-06T02:25:59.466Z,5.72
2018-01-06T02:28:27.039Z,5.97
2018-01-06T02:30:55.382Z,5.25
2018-01-06T02:33:23.059Z,5.50
2018-01-06T02:35:50.630Z,5.47
2018-01-06T02:38:18.181Z,4.53
2018-01-06T02:40:45.757Z,7.25
2018-01-06T02:43:13.374Z,5.55
2018-01-06T02:45:40.914Z,4.95
2018-01-06T02:48:08.514Z,9.77
2018-01-06T02:50:36.063Z,4.75
2018-01-06T02:53:03.626Z,9.98
2018-01-06T02:55:31.190Z,7.60
2018-01-06T02:57:58.750Z,3.42
2018-01-06T03:00:26.390Z,5.65
2018-01-06T03:02:53.947Z,8.82
2018-01-06T03:05:21.516Z,7.25
2018-01-06T03:07:49.061Z,5.35
2018-01-06T03:10:16.625Z,8.05
2018-01-06T03:12:44.169Z,8.00
2018-01-06T03:15:12.486Z,6.53
2018-01-06T03:17:40.146Z,9.45
2018-01-06T03:20:08.528Z,5.05
2018-01-06T03:22:36.150Z,8.02
2018-01-06T03:25:04.481Z,9.98
2018-01-06T03:27:32.029Z,4.60
2018-01-06T03:29:59.572Z,8.35
2018-01-06T03:32:27.118Z,4.53
2018-01-06T03:34:55.449Z,5.15
2018-01-06T03:37:23.069Z,7.40
2018-01-06T03:39:51.365Z,6.03
2018-01-06T03:42:18.970Z,8.80
2018-01-06T03:44:46.510Z,9.57
2018-01-06T03:47:14.062Z,6.45
2018-01-06T03:49:41.645Z,4.78
2018-01-06T03:52:09.154Z,6.68
2018-01-06T03:54:37.486Z,5.87
2018-01-06T03:57:05.202Z,5.93
2018-01-06T03:59:33.539Z,6.55
2018-01-06T04:02:02.845Z,6.65
2018-01-06T04:04:30.402Z,8.73
2018-01-06T04:06:57.964Z,7.90
2018-01-06T04:09:25.689Z,6.80
2018-01-06T04:11:53.249Z,7.15
2018-01-06T04:14:20.809Z,5.90
2018-01-06T04:16:48.369Z,8.38
2018-01-06T04:19:15.917Z,4.40
2018-01-06T04:21:44.259Z,7.70
2018-01-06T04:24:11.818Z,6.87
2018-01-06T04:26:39.387Z,7.40
2018-01-06T04:29:06.938Z,11.10
2018-01-06T04:31:34.495Z,7.65
2018-01-06T04:34:02.075Z,7.22
2018-01-06T04:36:29.626Z,8.13
2018-01-06T04:38:57.166Z,6.22
2018-01-06T04:41:24.729Z,6.07
2018-01-06T04:43:52.281Z,10.68
2018-01-06T04:46:19.911Z,6.80
2018-01-06T04:48:48.202Z,9.52
2018-01-06T04:51:15.772Z,11.10
2018-01-06T04:53:43.348Z,10.23
2018-01-06T04:56:10.898Z,14.00
2018-01-06T04:58:38.462Z,12.80
2018-01-06T05:01:06.021Z,12.77
2018-01-06T05:03:33.610Z,9.25
2018-01-06T05:06:01.129Z,9.68
2018-01-06T05:08:28.679Z,9.98
2018-01-06T05:10:57.023Z,12.27
2018-01-06T05:13:25.856Z,8.45
2018-01-06T05:15:54.177Z,7.50
2018-01-06T05:18:21.927Z,7.12
2018-01-06T05:20:49.488Z,7.22
2018-01-06T05:23:17.181Z,8.40
2018-01-06T05:25:44.745Z,7.47
2018-01-06T05:28:12.306Z,7.43
2018-01-06T05:30:39.909Z,9.20
2018-01-06T05:33:07.500Z,12.93
2018-01-06T05:35:35.055Z,7.10
2018-01-06T05:38:02.626Z,14.35
2018-01-06T05:40:30.333Z,6.62
2018-01-06T05:42:58.005Z,9.05
2018-01-06T05:45:26.361Z,13.00
2018-01-06T05:47:53.908Z,8.45
2018-01-06T05:50:21.481Z,7.00
2018-01-06T05:52:49.042Z,6.72
2018-01-06T05:55:16.698Z,8.25
2018-01-06T05:57:44.250Z,6.20
2018-01-06T06:00:11.893Z,5.55
2018-01-06T06:02:39.448Z,9.35
2018-01-06T06:05:07.029Z,8.45
2018-01-06T06:07:34.674Z,13.60
2018-01-06T06:10:02.233Z,7.05
2018-01-06T06:12:29.801Z,9.82
2018-01-06T06:14:57.375Z,9.45
2018-01-06T06:17:24.939Z,7.60
2018-01-06T06:19:52.543Z,9.32
2018-01-06T06:22:20.193Z,11.55
2018-01-06T06:24:47.837Z,10.18
2018-01-06T06:27:15.457Z,5.78
2018-01-06T06:29:42.970Z,9.55
2018-01-06T06:32:10.546Z,9.65
2018-01-06T06:34:38.085Z,8.30
2018-01-06T06:37:05.694Z,8.45
2018-01-06T06:39:34.075Z,6.97
2018-01-06T06:42:02.401Z,10.02
2018-01-06T06:44:29.978Z,17.98
2018-01-06T06:46:57.521Z,9.02
2018-01-06T06:49:25.088Z,9.73
2018-01-06T06:51:52.643Z,6.65
2018-01-06T06:54:20.210Z,10.90
2018-01-06T06:56:47.749Z,9.52
2018-01-06T06:59:15.422Z,14.68
2018-01-06T07:01:43.032Z,13.48
2018-01-06T07:04:10.581Z,9.02
2018-01-06T07:06:38.124Z,8.95
2018-01-06T07:09:05.710Z,12.10
2018-01-06T07:11:33.314Z,9.90
2018-01-06T07:14:00.824Z,7.15
2018-01-06T07:16:28.360Z,7.93
2018-01-06T07:18:55.940Z,12.98
2018-01-06T07:21:23.511Z,11.07
2018-01-06T07:23:51.074Z,12.88
2018-01-06T07:26:18.615Z,9.35
2018-01-06T07:28:46.163Z,7.93
2018-01-06T07:31:13.712Z,12.73
2018-01-06T07:33:41.290Z,9.27
2018-01-06T07:36:08.845Z,11.12
2018-01-06T07:38:36.422Z,12.02
2018-01-06T07:41:03.974Z,9.38
2018-01-06T07:43:31.523Z,6.70
2018-01-06T07:45:59.078Z,10.82
2018-01-06T07:48:26.727Z,10.27
2018-01-06T07:50:55.265Z,13.13
2018-01-06T07:53:22.940Z,10.35
2018-01-06T07:55:50.497Z,10.05
2018-01-06T07:58:18.059Z,13.38
2018-01-06T08:00:45.628Z,6.28
2018-01-06T08:03:13.249Z,14.77
2018-01-06T08:05:40.814Z,12.98
2018-01-06T08:08:08.469Z,7.55
2018-01-06T08:10:36.022Z,6.90
2018-01-06T08:13:03.574Z,12.30
2018-01-06T08:15:31.889Z,12.98
2018-01-06T08:17:59.464Z,17.23
2018-01-06T08:20:27.014Z,7.43
2018-01-06T08:22:54.639Z,5.78
2018-01-06T08:25:22.987Z,6.75
2018-01-06T08:27:50.582Z,14.95
2018-01-06T08:30:18.927Z,9.75
2018-01-06T08:32:46.475Z,6.07
2018-01-06T08:35:14.159Z,18.75
2018-01-06T08:37:41.862Z,9.75
2018-01-06T08:40:09.421Z,8.15
2018-01-06T08:42:37.143Z,8.32
2018-01-06T08:45:04.688Z,8.10
2018-01-06T08:47:32.230Z,5.32
2018-01-06T08:49:59.990Z,18.80
2018-01-06T08:52:27.544Z,10.85
2018-01-06T08:54:55.118Z,5.50
2018-01-06T08:57:22.694Z,8.70
2018-01-06T08:59:50.355Z,9.32
2018-01-06T09:02:17.930Z,7.18
2018-01-06T09:04:45.510Z,8.10
2018-01-06T09:07:13.133Z,7.87
2018-01-06T09:09:40.718Z,6.50
2018-01-06T09:12:08.465Z,7.68
2018-01-06T09:14:36.045Z,8.65
2018-01-06T09:17:03.654Z,11.75
2018-01-06T09:19:32.067Z,7.50
2018-01-06T09:21:59.649Z,7.78
2018-01-06T09:24:27.227Z,8.85
2018-01-06T09:26:54.821Z,10.55
2018-01-06T09:29:23.363Z,10.20
2018-01-06T09:31:50.942Z,8.55
2018-01-06T09:34:18.534Z,8.57
2018-01-06T09:36:46.095Z,6.05
2018-01-06T09:39:14.566Z,9.88
2018-01-06T09:41:42.884Z,5.32
2018-01-06T09:44:10.483Z,6.30
2018-01-06T09:46:38.046Z,6.95
2018-01-06T09:49:05.648Z,9.63
2018-01-06T09:51:33.983Z,13.18
2018-01-06T09:54:01.544Z,7.93
2018-01-06T09:56:29.157Z,8.98
2018-01-06T09:58:57.489Z,10.13
2018-01-06T10:01:25.069Z,15.43
2018-01-06T10:03:53.409Z,15.85
2018-01-06T10:06:21.555Z,17.98
2018-01-06T10:08:49.100Z,9.60
2018-01-06T10:11:17.466Z,10.82
2018-01-06T10:13:45.036Z,7.40
2018-01-06T10:16:13.515Z,10.18
2018-01-06T10:18:41.858Z,7.30
2018-01-06T10:21:09.429Z,9.75
2018-01-06T10:23:37.088Z,7.30
2018-01-06T10:26:04.699Z,10.27
2018-01-06T10:28:33.045Z,10.52
2018-01-06T10:31:00.634Z,7.60
2018-01-06T10:33:29.106Z,10.77
2018-01-06T10:35:56.661Z,8.77
2018-01-06T10:38:24.349Z,12.50
2018-01-06T10:40:52.695Z,10.83
2018-01-06T10:43:20.268Z,8.82
2018-01-06T10:45:47.873Z,13.48
2018-01-06T10:48:15.504Z,12.90
2018-01-06T10:50:43.842Z,11.00
2018-01-06T10:53:11.408Z,12.75
2018-01-06T10:55:38.970Z,9.20
2018-01-06T10:58:06.787Z,9.07
2018-01-06T11:00:40.678Z,10.73
2018-01-06T11:03:08.283Z,13.37
2018-01-06T11:05:35.837Z,16.40
2018-01-06T11:08:03.516Z,14.18
2018-01-06T11:10:31.066Z,16.03
2018-01-06T11:12:58.641Z,10.10
2018-01-06T11:15:26.226Z,13.63
2018-01-06T11:17:53.774Z,15.63
2018-01-06T11:20:21.353Z,22.47
2018-01-06T11:22:48.922Z,17.23
2018-01-06T11:25:16.526Z,14.43
2018-01-06T11:27:44.095Z,15.20
2018-01-06T11:30:11.673Z,11.57
2018-01-06T11:32:39.259Z,9.60
2018-01-06T11:35:06.837Z,9.60
2018-01-06T11:37:35.153Z,11.87
2018-01-06T11:40:03.511Z,8.00
2018-01-06T11:42:31.085Z,9.90
2018-01-06T11:44:59.423Z,9.47
2018-01-06T11:47:26.995Z,10.80
2018-01-06T11:49:54.566Z,11.00
2018-01-06T11:52:22.941Z,11.07
2018-01-06T11:54:50.506Z,9.77
2018-01-06T11:57:18.059Z,10.03
2018-01-06T11:59:45.623Z,12.47
2018-01-06T12:02:13.223Z,10.20
2018-01-06T12:04:40.834Z,9.10
2018-01-06T12:07:08.469Z,12.30
2018-01-06T12:09:36.024Z,9.10
2018-01-06T12:12:03.594Z,9.20
2018-01-06T12:14:31.229Z,10.87
2018-01-06T12:16:59.548Z,9.90
2018-01-06T12:19:27.102Z,14.47
2018-01-06T12:21:54.663Z,11.63
2018-01-06T12:24:22.284Z,15.63
2018-01-06T12:26:49.872Z,12.50
2018-01-06T12:29:18.189Z,11.97
2018-01-06T12:31:45.798Z,9.40
2018-01-06T12:34:14.130Z,10.13
2018-01-06T12:36:42.454Z,10.90
2018-01-06T12:39:10.033Z,13.60
2018-01-06T12:41:37.641Z,12.03
2018-01-06T12:44:06.001Z,9.90
2018-01-06T12:46:34.441Z,7.00
2018-01-06T12:49:02.786Z,11.70
2018-01-06T12:51:30.346Z,7.43
2018-01-06T12:53:57.899Z,7.73
2018-01-06T12:56:25.518Z,12.73
2018-01-06T12:58:53.846Z,9.50
2018-01-06T13:01:21.401Z,8.10
2018-01-06T13:03:48.990Z,10.40
2018-01-06T13:06:16.721Z,14.80
2018-01-06T13:08:44.302Z,10.90
2018-01-06T13:11:12.693Z,15.10
2018-01-06T13:13:40.314Z,11.47
2018-01-06T13:16:07.908Z,6.83
2018-01-06T13:18:36.566Z,8.27
2018-01-06T13:21:04.522Z,10.20
2018-01-06T13:23:33.658Z,20.17
2018-01-06T13:26:01.305Z,8.30
2018-01-06T13:28:28.951Z,9.50
2018-01-06T13:30:57.392Z,14.33
2018-01-06T13:33:24.948Z,10.50
2018-01-06T13:35:53.345Z,11.70
2018-01-06T13:38:21.721Z,10.97
2018-01-06T13:40:49.371Z,10.47
2018-01-06T13:43:17.627Z,12.30
2018-01-06T13:45:45.192Z,8.60
2018-01-06T13:48:12.757Z,8.70
2018-01-06T13:50:40.317Z,10.20
2018-01-06T13:53:07.950Z,11.10
2018-01-06T13:55:35.985Z,10.10
2018-01-06T13:58:04.310Z,18.80
2018-01-06T14:00:31.886Z,9.97
2018-01-06T14:02:59.686Z,8.80
2018-01-06T14:05:27.945Z,11.13
2018-01-06T14:07:57.347Z,18.67
2018-01-06T14:10:25.079Z,37.27
2018-01-06T14:12:52.897Z,17.20
2018-01-06T14:15:21.238Z,16.03
2018-01-06T14:17:48.857Z,12.00
2018-01-06T14:20:16.616Z,16.00
2018-01-06T14:22:44.168Z,6.83
2018-01-06T14:25:11.737Z,13.40
2018-01-06T14:27:39.295Z,13.97
2018-01-06T14:30:06.846Z,17.25
2018-01-06T14:32:34.418Z,12.30
2018-01-06T14:35:02.151Z,14.93
2018-01-06T14:37:29.876Z,11.93
2018-01-06T14:39:57.310Z,10.60
2018-01-06T14:42:24.922Z,13.33
2018-01-06T14:44:52.469Z,9.33
2018-01-06T14:47:20.095Z,13.02
2018-01-06T14:49:47.638Z,14.60
2018-01-06T14:52:15.464Z,13.13
2018-01-06T14:54:43.030Z,9.73
2018-01-06T14:57:10.610Z,15.63
2018-01-06T14:59:38.181Z,13.53
2018-01-06T15:02:05.817Z,13.88
2018-01-06T15:04:33.405Z,15.20
2018-01-06T15:07:01.085Z,13.80
2018-01-06T15:09:28.706Z,18.17
2018-01-06T15:11:56.293Z,12.98
2018-01-06T15:14:23.882Z,13.43
2018-01-06T15:16:51.469Z,12.77
2018-01-06T15:19:19.039Z,15.48
2018-01-06T15:21:46.724Z,14.98
2018-01-06T15:24:14.282Z,19.80
2018-01-06T15:26:41.878Z,19.02
2018-01-06T15:29:09.458Z,16.77
2018-01-06T15:31:37.144Z,16.95
2018-01-06T15:34:05.528Z,19.45
2018-01-06T15:36:33.097Z,15.30
2018-01-06T15:39:00.657Z,14.63
2018-01-06T15:41:28.223Z,20.75
2018-01-06T15:43:56.598Z,12.37
2018-01-06T15:46:24.215Z,17.17
2018-01-06T15:48:51.818Z,14.45
2018-01-06T15:51:19.419Z,35.03
2018-01-06T15:53:47.733Z,33.75
2018-01-06T15:56:15.342Z,18.12
2018-01-06T15:58:43.708Z,13.50
2018-01-06T16:01:11.297Z,13.48
2018-01-06T16:03:39.666Z,15.30
2018-01-06T16:06:07.240Z,18.35
2018-01-06T16:08:35.617Z,14.55
2018-01-06T16:11:03.926Z,16.25
2018-01-06T16:13:31.504Z,23.12
2018-01-06T16:15:59.057Z,25.45
2018-01-06T16:18:26.740Z,28.25
2018-01-06T16:20:54.312Z,29.58
2018-01-06T16:23:21.896Z,26.15
2018-01-06T16:25:50.230Z,22.35
2018-01-06T16:28:17.978Z,22.13
2018-01-06T16:30:45.662Z,19.05
2018-01-06T16:33:13.318Z,25.58
2018-01-06T16:35:40.885Z,24.08
2018-01-06T16:38:08.517Z,26.45
2018-01-06T16:40:36.086Z,28.85
2018-01-06T16:43:03.633Z,17.65
2018-01-06T16:45:31.208Z,20.25
2018-01-06T16:47:58.788Z,16.08
2018-01-06T16:50:26.371Z,18.87
2018-01-06T16:52:53.938Z,16.87
2018-01-06T16:55:21.551Z,23.17
2018-01-06T16:57:49.125Z,21.23
2018-01-06T17:00:16.698Z,16.27
2018-01-06T17:02:44.272Z,19.10
2018-01-06T17:05:11.844Z,27.23
2018-01-06T17:07:39.437Z,28.75
2018-01-06T17:10:07.798Z,17.80
2018-01-06T17:12:36.060Z,25.05
2018-01-06T17:15:03.644Z,27.80
2018-01-06T17:17:31.206Z,20.30
2018-01-06T17:19:59.564Z,14.52
2018-01-06T17:22:27.144Z,17.92
2018-01-06T17:24:54.704Z,16.60
2018-01-06T17:27:22.265Z,17.23
2018-01-06T17:29:49.822Z,23.20
2018-01-06T17:32:17.390Z,18.25
2018-01-06T17:34:44.979Z,14.60
2018-01-06T17:37:13.317Z,40.30
2018-01-06T17:39:40.898Z,24.92
2018-01-06T17:42:08.467Z,26.40
2018-01-06T17:44:36.089Z,30.73
2018-01-06T17:47:03.671Z,24.92
2018-01-06T17:49:31.239Z,32.78
2018-01-06T17:51:58.840Z,23.73
2018-01-06T17:54:26.470Z,19.30
2018-01-06T17:56:54.036Z,11.57
2018-01-06T17:59:21.628Z,21.52
2018-01-06T18:01:50.165Z,12.50
2018-01-06T18:04:18.489Z,14.52
2018-01-06T18:06:46.069Z,15.77
2018-01-06T18:09:13.657Z,14.00
2018-01-06T18:11:41.193Z,20.90
2018-01-06T18:14:08.781Z,18.58
2018-01-06T18:16:37.187Z,15.45
2018-01-06T18:19:04.752Z,13.62
2018-01-06T18:21:32.405Z,19.70
2018-01-06T18:24:00.031Z,13.55
2018-01-06T18:26:27.608Z,9.25
2018-01-06T18:28:55.155Z,15.73
2018-01-06T18:31:22.729Z,16.83
2018-01-06T18:33:50.287Z,20.67
2018-01-06T18:36:17.857Z,17.87
2018-01-06T18:38:45.461Z,18.42
2018-01-06T18:41:14.058Z,21.15
2018-01-06T18:43:41.617Z,14.13
2018-01-06T18:46:09.176Z,15.07
2018-01-06T18:48:36.757Z,14.50
2018-01-06T18:51:04.393Z,16.52
2018-01-06T18:53:31.985Z,21.00
2018-01-06T18:55:59.590Z,15.00
2018-01-06T18:58:27.963Z,14.75
2018-01-06T19:00:55.571Z,16.98
2018-01-06T19:03:23.698Z,19.12
2018-01-06T19:06:04.684Z,13.18
2018-01-06T19:08:55.566Z,18.55
2018-01-06T19:11:24.286Z,13.93
2018-01-06T19:13:51.838Z,13.20
2018-01-06T19:16:19.424Z,16.05
2018-01-06T19:18:47.006Z,22.90
2018-01-06T19:21:15.422Z,22.48
2018-01-06T19:23:43.077Z,18.77
2018-01-06T19:26:10.662Z,18.00
2018-01-06T19:28:38.242Z,11.98
2018-01-06T19:31:05.865Z,14.70
2018-01-06T19:33:33.383Z,14.30
2018-01-06T19:36:01.069Z,13.90
2018-01-06T19:38:28.714Z,17.37
2018-01-06T19:40:57.083Z,14.10
2018-01-06T19:43:25.420Z,17.40
2018-01-06T19:45:53.080Z,16.35
2018-01-06T19:48:20.689Z,18.02
2018-01-06T19:50:49.037Z,17.50
2018-01-06T19:53:16.672Z,15.65
2018-01-06T19:55:44.259Z,15.18
2018-01-06T19:58:13.170Z,10.48
2018-01-06T20:00:41.435Z,17.40
2018-01-06T20:03:09.031Z,21.40
2018-01-06T20:05:36.772Z,16.37
2018-01-06T20:08:04.367Z,26.50
2018-01-06T20:10:32.192Z,17.50
2018-01-06T20:12:59.793Z,16.27
2018-01-06T20:15:28.184Z,19.48
2018-01-06T20:17:55.756Z,15.57
2018-01-06T20:20:23.553Z,21.77
2018-01-06T20:22:51.124Z,19.67
2018-01-06T20:25:18.690Z,21.55
2018-01-06T20:27:46.283Z,14.13
2018-01-06T20:33:58.458Z,18.12
2018-01-06T20:36:38.690Z,16.02
2018-01-06T20:39:07.206Z,13.95
2018-01-06T20:41:34.905Z,15.48
2018-01-06T20:44:04.578Z,17.10
2018-01-06T20:46:32.627Z,13.20
2018-01-06T20:49:00.608Z,16.15
2018-01-06T20:51:28.571Z,14.23
2018-01-06T20:53:56.904Z,16.73
2018-01-06T20:56:25.281Z,17.90
2018-01-06T20:58:54.197Z,13.60
2018-01-06T21:01:21.793Z,16.05
2018-01-06T21:03:49.414Z,17.27
2018-01-06T21:06:17.741Z,18.37
2018-01-06T21:08:45.332Z,12.88
2018-01-06T21:11:12.902Z,16.23
2018-01-06T21:13:41.638Z,14.68
2018-01-06T21:16:09.283Z,14.35
2018-01-06T21:18:36.864Z,18.75
2018-01-06T21:21:04.439Z,15.75
2018-01-06T21:24:01.701Z,21.17
2018-01-06T21:26:29.362Z,16.90
2018-01-06T21:28:57.104Z,19.60
2018-01-06T21:31:24.888Z,22.58
2018-01-06T21:33:52.608Z,16.08
2018-01-06T21:36:21.246Z,22.95
2018-01-06T21:38:49.270Z,23.08
2018-01-06T21:41:17.380Z,18.95
2018-01-06T21:43:45.843Z,19.73
2018-01-06T21:46:14.333Z,24.95
2018-01-06T21:48:41.975Z,24.60
2018-01-06T21:51:10.677Z,24.77
2018-01-06T21:53:40.238Z,18.95
2018-01-06T21:56:07.904Z,17.87
2018-01-06T21:58:35.604Z,22.50
2018-01-06T22:01:03.422Z,18.20
2018-01-06T22:03:31.440Z,19.48
2018-01-06T22:05:59.933Z,24.20
2018-01-06T22:08:27.615Z,26.62
2018-01-06T22:10:55.258Z,21.70
2018-01-06T22:13:22.912Z,23.73
2018-01-06T22:15:50.534Z,23.67
2018-01-06T22:18:18.927Z,17.80
2018-01-06T22:20:47.342Z,26.70
2018-01-06T22:23:15.020Z,26.65
2018-01-06T22:25:42.748Z,22.95
2018-01-06T22:28:11.193Z,31.52
2018-01-06T22:30:38.960Z,29.10
2018-01-06T22:33:08.698Z,32.47
2018-01-06T22:35:37.213Z,24.75
2018-01-06T22:38:04.864Z,28.27
2018-01-06T22:40:32.648Z,28.05
2018-01-06T22:43:00.269Z,28.90
2018-01-06T22:45:27.990Z,28.20
2018-01-06T22:47:55.553Z,33.08
2018-01-06T22:50:23.953Z,25.37
2018-01-06T22:52:51.627Z,33.08
2018-01-06T22:55:19.197Z,31.10
2018-01-06T22:57:46.808Z,33.50
2018-01-06T23:00:14.376Z,33.65
2018-01-06T23:02:41.933Z,37.83
2018-01-06T23:05:09.506Z,37.97
2018-01-06T23:07:37.072Z,34.95
2018-01-06T23:10:04.655Z,39.90
2018-01-06T23:12:32.247Z,36.65
2018-01-06T23:15:00.581Z,28.55
2018-01-06T23:17:28.426Z,42.00
2018-01-06T23:19:56.038Z,31.75
2018-01-06T23:22:23.589Z,33.75
2018-01-06T23:24:51.166Z,37.20
2018-01-06T23:27:18.750Z,35.20
2018-01-06T23:29:47.106Z,33.67
2018-01-06T23:32:14.710Z,35.15
2018-01-06T23:34:42.269Z,37.28
2018-01-06T23:37:09.836Z,34.05
2018-01-06T23:39:37.417Z,37.05
2018-01-06T23:42:05.012Z,36.17
2018-01-06T23:44:32.577Z,36.22
2018-01-06T23:47:00.193Z,43.72
2018-01-06T23:49:27.891Z,38.85
2018-01-06T23:51:55.660Z,43.70
2018-01-06T23:54:23.294Z,41.28
2018-01-06T23:56:51.677Z,42.50
2018-01-06T23:59:19.386Z,41.53
